Latest Weather Observations for Cape Flattery

IDQ60801

Issued at 4:02 pm EST Friday 27 February 2015 (issued every 30 minutes, with the page automatically refreshed every 10 minutes)

About weather observations | Map of weather stations | Latest weather observations for QLD | Other Formats
Station Details ID: 031213 Name: CAPE FLATTERY Lat: -14.97 Lon: 145.31 Height: 18.5 m
Data from the previous 72 hours. | See also: Recent months at Cape Flattery
Date/Time
EST
Temp
°C
App
Temp
°C
Dew
Point
Rel
Hum
%
Delta-T
°C
Wind Press
QNH
hPa
Press
MSL
hPa
Rain
since 9 am
mm
Dir
 
Spd
km/h
Gust
km/h
Spd
kts
Gust
kts
27/04:00pm 31.2 34.4 23.0 61 5.6 ENE 11 19 6 10 1005.4 1005.3 0.0
27/03:30pm 31.2 34.2 23.3 63 5.5 ENE 13 17 7 9 1005.4 1005.3 0.0
27/03:00pm 30.9 34.0 23.5 64 5.1 E 13 19 7 10 1005.6 1005.5 0.0
27/02:30pm 32.0 35.3 23.8 62 5.7 ENE 13 19 7 10 1005.8 1005.7 0.0
27/02:00pm 30.3 32.9 22.7 64 5.2 E 13 20 7 11 1006.3 1006.2 0.0
27/01:30pm 32.0 35.4 24.6 65 5.2 E 15 19 8 10 1006.4 1006.3 0.0
27/01:00pm 30.1 32.7 23.3 67 4.7 ESE 15 24 8 13 1007.0 1006.9 0.0
27/12:30pm 30.2 32.6 22.9 65 5.0 SE 15 20 8 11 1007.6 1007.5 0.0
27/12:00pm 31.3 33.6 23.4 63 5.5 SE 17 24 9 13 1007.9 1007.8 0.0
27/11:30am 30.8 33.0 23.2 64 5.2 SE 17 26 9 14 1008.1 1008.0 0.0
27/11:00am 31.2 33.8 23.3 63 5.5 SE 15 22 8 12 1008.4 1008.3 0.0
27/10:30am 30.4 32.2 22.6 63 5.3 SE 17 24 9 13 1008.7 1008.6 0.0
27/10:00am 30.7 33.2 23.1 64 5.2 SE 15 20 8 11 1008.8 1008.7 0.0
27/09:30am 29.9 33.3 24.1 71 4.0 SE 13 20 7 11 1008.7 1008.6 0.0
27/09:00am 29.0 33.3 23.7 73 3.7 E 7 11 4 6 1008.5 1008.4 0.2
27/08:30am 28.9 33.2 23.6 73 3.7 SE 7 11 4 6 1008.3 1008.2 0.2
27/08:00am 29.1 32.9 23.5 72 3.9 SSE 9 11 5 6 1007.8 1007.7 0.2
27/07:30am 27.1 33.3 24.6 86 1.7 CALM 0 0 0 0 1007.5 1007.4 0.2
27/07:00am 25.7 31.6 24.1 91 1.1 CALM 0 0 0 0 1007.2 1007.1 0.2
27/06:30am 25.3 31.0 23.7 91 1.1 CALM 0 0 0 0 1006.9 1006.8 0.2
27/06:00am 24.5 28.8 22.7 90 1.2 ESE 4 6 2 3 1006.8 1006.7 0.2
27/05:30am 24.4 28.0 22.1 87 1.5 E 6 7 3 4 1006.4 1006.3 0.2
27/05:00am 24.8 29.4 22.5 87 1.5 E 2 7 1 4 1006.2 1006.1 0.2
27/04:30am 25.1 28.9 22.8 87 1.6 E 7 9 4 5 1006.0 1005.9 0.2
27/04:00am 25.7 31.2 23.4 87 1.6 CALM 0 0 0 0 1006.2 1006.1 0.2
27/03:30am 25.9 31.3 23.2 85 1.8 CALM 0 0 0 0 1006.3 1006.2 0.2
27/03:00am 26.2 30.3 23.3 84 2.0 E 7 9 4 5 1006.5 1006.4 0.2
27/02:30am 26.2 30.3 23.3 84 2.0 E 7 9 4 5 1006.9 1006.8 0.2
27/02:00am 26.1 30.5 23.4 85 1.8 E 6 7 3 4 1007.1 1007.0 0.2
27/01:30am 26.1 29.8 23.2 84 2.0 E 9 9 5 5 1007.3 1007.2 0.2
27/01:00am 26.4 30.5 23.3 83 2.1 E 7 9 4 5 1007.7 1007.6 0.2
27/12:30am 26.5 30.3 23.4 83 2.1 E 9 11 5 6 1008.0 1007.9 0.2
27/12:00am 26.4 30.4 23.7 85 1.9 E 9 9 5 5 1008.2 1008.1 0.2
 
Date/Time
EST
Temp
°C
App
Temp
°C
Dew
Point
Rel
Hum
%
Delta-T
°C
Wind Press
QNH
hPa
Press
MSL
hPa
Rain
since 9 am
mm
Dir
 
Spd
km/h
Gust
km/h
Spd
kts
Gust
kts
26/11:30pm 26.2 29.9 23.3 84 2.0 E 9 9 5 5 1008.3 1008.2 0.2
26/11:00pm 26.3 30.4 23.2 83 2.1 E 7 9 4 5 1008.5 1008.4 0.2
26/10:30pm 26.4 30.0 23.1 82 2.2 ESE 9 11 5 6 1008.2 1008.1 0.2
26/10:00pm 26.8 30.4 23.1 80 2.5 ESE 9 13 5 7 1008.0 1007.9 0.2
26/09:30pm 27.2 30.8 23.0 78 2.9 ESE 9 13 5 7 1007.9 1007.8 0.2
26/09:00pm 27.3 30.8 22.9 77 3.0 ESE 9 11 5 6 1007.7 1007.6 0.2
26/08:30pm 27.4 30.7 23.2 78 2.9 ESE 11 13 6 7 1007.1 1007.0 0.2
26/08:00pm 27.4 30.6 23.0 77 3.0 E 11 15 6 8 1006.6 1006.5 0.2
26/07:30pm 27.2 30.8 23.0 78 2.9 ESE 9 13 5 7 1006.4 1006.3 0.2
26/07:00pm 27.6 31.2 23.0 76 3.1 ESE 9 13 5 7 1006.2 1006.1 0.2
26/06:30pm 28.3 31.5 23.0 73 3.6 ESE 11 15 6 8 1005.9 1005.8 0.2
26/06:00pm 29.0 30.9 22.7 69 4.3 SE 17 20 9 11 1005.7 1005.6 0.2
26/05:30pm 30.1 32.1 23.0 65 4.9 ESE 17 24 9 13 1005.3 1005.2 0.2
26/05:00pm 30.2 31.6 22.6 63 5.2 ESE 19 26 10 14 1005.1 1005.0 0.2
26/04:30pm 30.5 32.4 22.7 63 5.3 ESE 17 22 9 12 1004.9 1004.8 0.2
26/04:00pm 29.5 31.1 22.2 65 5.0 ESE 17 22 9 12 1005.0 1004.9 0.2
26/03:30pm 30.5 32.7 23.2 65 5.0 SE 17 22 9 12 1005.0 1004.9 0.2
26/03:00pm 30.7 32.5 22.6 62 5.5 SE 17 22 9 12 1005.3 1005.2 0.2
26/02:30pm 31.1 33.0 23.5 64 5.3 SE 19 26 10 14 1005.7 1005.6 0.2
26/02:00pm 30.6 32.6 24.0 68 4.6 SE 20 28 11 15 1005.9 1005.8 0.2
26/01:30pm 30.8 33.4 24.0 67 4.7 SSE 17 26 9 14 1006.3 1006.2 0.2
26/01:00pm 31.2 34.7 25.5 71 4.0 SSE 17 24 9 13 1006.5 1006.4 0.2
26/12:30pm 30.3 34.3 25.1 73 3.7 SSE 13 20 7 11 1006.7 1006.6 0.2
26/12:00pm 30.5 35.0 25.8 76 3.3 SE 13 20 7 11 1007.4 1007.3 0.2
26/11:30am 30.2 34.5 25.5 76 3.3 SSE 13 22 7 12 1008.1 1008.0 0.2
26/11:00am 29.3 33.1 25.3 79 2.8 SSE 15 19 8 10 1008.3 1008.2 0.2
26/10:30am 29.2 32.8 25.0 78 2.9 SSE 15 19 8 10 1008.3 1008.2 0.2
26/10:00am 29.3 33.2 25.5 80 2.7 SSE 15 20 8 11 1008.5 1008.4 0.0
26/09:30am 28.5 31.9 24.7 80 2.7 SSE 15 19 8 10 1008.6 1008.5 0.0
26/09:00am 28.0 31.7 25.2 85 2.0 SE 15 17 8 9 1008.5 1008.4 3.8
26/08:30am 27.0 30.7 24.6 87 1.7 SE 13 17 7 9 1008.4 1008.3 3.8
26/08:00am 26.0 30.3 24.2 90 1.2 SE 9 11 5 6 1008.4 1008.3 3.8
26/07:30am 25.4 31.2 24.0 92 1.0 CALM 0 0 0 0 1008.1 1008.0 3.8
26/07:00am 24.8 29.7 23.6 93 0.8 SSE 4 7 2 4 1007.9 1007.8 3.8
26/06:30am 24.2 28.2 22.8 92 0.9 ESE 6 7 3 4 1007.7 1007.6 3.8
26/06:00am 24.2 29.3 22.6 91 1.1 CALM 0 6 0 3 1007.3 1007.2 3.8
26/05:30am 24.5 28.4 22.9 91 1.1 S 7 9 4 5 1007.2 1007.1 3.8
26/05:00am 24.7 27.2 23.1 91 1.1 SSW 15 20 8 11 1007.0 1006.9 3.8
26/04:30am 25.1 28.7 23.7 92 1.0 S 11 17 6 9 1007.3 1007.2 3.8
26/04:00am 25.1 28.9 23.5 91 1.1 SSW 9 13 5 7 1007.0 1006.9 3.8
26/03:30am 25.2 29.0 23.4 90 1.2 SW 9 15 5 8 1007.3 1007.2 3.8
26/03:00am 25.1 30.5 23.3 90 1.2 CALM 0 0 0 0 1007.1 1007.0 3.8
26/02:30am 24.9 29.5 23.1 90 1.2 E 4 6 2 3 1006.9 1006.8 3.8
26/02:00am 25.0 29.2 23.2 90 1.2 SSE 6 9 3 5 1007.0 1006.9 3.8
26/01:30am 25.1 30.5 23.2 89 1.3 CALM 0 6 0 3 1007.3 1007.2 3.8
26/01:00am 26.2 32.2 24.8 92 1.0 SSW 2 6 1 3 1007.2 1007.1 3.8
26/12:30am 26.1 32.0 24.7 92 1.0 SSE 2 7 1 4 1007.3 1007.2 3.8
26/12:00am 26.0 30.9 24.6 92 1.0 SSE 7 11 4 6 1007.4 1007.3 3.8
 
Date/Time
EST
Temp
°C
App
Temp
°C
Dew
Point
Rel
Hum
%
Delta-T
°C
Wind Press
QNH
hPa
Press
MSL
hPa
Rain
since 9 am
mm
Dir
 
Spd
km/h
Gust
km/h
Spd
kts
Gust
kts
25/11:30pm 26.0 32.0 24.2 90 1.2 CALM 0 0 0 0 1007.8 1007.7 3.8
25/11:00pm 25.7 30.2 23.9 90 1.2 S 7 11 4 6 1008.2 1008.1 3.8
25/10:30pm 25.7 30.2 23.9 90 1.2 S 7 11 4 6 1008.5 1008.4 3.8
25/10:00pm 25.9 30.9 23.9 89 1.4 SSW 4 9 2 5 1008.7 1008.6 3.8
25/09:30pm 26.7 32.1 25.1 91 1.1 SW 6 7 3 4 1008.3 1008.2 3.8
25/09:00pm 26.7 31.9 25.1 91 1.1 NW 7 9 4 5 1008.0 1007.9 3.8
25/08:30pm 26.4 32.4 24.8 91 1.1 WNW 2 6 1 3 1008.0 1007.9 3.8
25/08:00pm 26.4 32.9 25.0 92 1.0 CALM 0 0 0 0 1007.6 1007.5 3.8
25/07:30pm 25.8 30.3 24.0 90 1.2 ENE 7 9 4 5 1007.0 1006.9 3.6
25/07:00pm 27.9 31.9 25.1 85 2.0 SE 13 26 7 14 1006.7 1006.6 0.0
25/06:30pm 28.6 33.7 25.6 84 2.1 ESE 9 11 5 6 1006.3 1006.2 0.0
25/06:00pm 28.7 32.7 25.1 81 2.5 ESE 13 22 7 12 1005.6 1005.5 0.0
25/05:30pm 29.2 32.4 25.6 81 2.5 SE 19 24 10 13 1005.3 1005.2 0.0
25/05:00pm 29.2 32.3 25.4 80 2.7 SE 19 26 10 14 1005.3 1005.2 0.0
25/04:30pm 29.2 32.8 25.6 81 2.5 SE 17 20 9 11 1004.9 1004.8 0.0
25/04:00pm 29.3 33.1 25.3 79 2.8 SE 15 20 8 11 1005.2 1005.1 0.0
25/03:30pm 30.0 32.3 25.1 75 3.4 SSE 22 28 12 15 1005.4 1005.3 0.0
25/03:00pm 30.4 33.1 25.0 73 3.8 SE 20 28 11 15 1005.3 1005.2 0.0
25/02:30pm 30.5 32.8 25.1 73 3.8 SE 22 30 12 16 1005.5 1005.4 0.0
25/02:00pm 30.8 33.8 25.6 74 3.7 SE 20 28 11 15 1006.2 1006.1 0.0
25/01:30pm 30.9 33.7 25.3 72 4.0 SE 20 28 11 15 1006.5 1006.4 0.0
25/01:00pm 31.0 33.9 25.1 71 4.2 SE 19 26 10 14 1007.1 1007.0 0.0
25/12:30pm 30.8 34.0 25.6 74 3.7 SE 19 24 10 13 1007.6 1007.5 0.0
25/12:00pm 30.0 33.5 25.5 77 3.2 SSE 17 22 9 12 1007.8 1007.7 0.0
25/11:30am 29.0 32.1 24.8 78 2.9 SSE 17 20 9 11 1007.8 1007.7 0.0
25/11:00am 28.9 32.8 25.5 82 2.4 SSE 15 19 8 10 1008.3 1008.2 0.0
25/10:30am 28.4 33.3 25.2 83 2.2 SSE 9 11 5 6 1008.8 1008.7 0.0
25/10:00am 28.0 34.5 25.0 84 2.1 CALM 0 0 0 0 1008.7 1008.6 0.0
25/09:30am 26.9 31.9 24.5 87 1.7 SSW 6 9 3 5 1008.9 1008.8 0.0
25/09:00am 26.2 32.0 24.6 91 1.1 WSW 2 7 1 4 1008.6 1008.5 27.8
25/08:30am 26.0 32.0 24.8 93 0.8 SW 2 7 1 4 1008.7 1008.6 27.4
25/08:00am 25.5 30.4 24.3 93 0.8 SE 6 7 3 4 1008.6 1008.5 27.2
25/07:30am 25.6 31.3 24.4 93 0.8 ESE 2 9 1 5 1007.8 1007.7 27.2
25/07:00am 25.3 30.1 24.1 93 0.8 E 6 7 3 4 1007.8 1007.7 27.0
25/06:30am 25.4 30.1 24.0 92 1.0 NE 6 9 3 5 1008.4 1008.3 25.8
25/06:00am 25.9 30.9 24.5 92 1.0 SW 6 9 3 5 1007.9 1007.8 22.4
25/05:30am 26.4 31.0 24.8 91 1.1 W 9 13 5 7 1007.7 1007.6 13.6
25/05:00am 26.3 30.7 24.5 90 1.2 NW 9 11 5 6 1007.3 1007.2 13.6
25/04:30am 26.3 30.9 24.7 91 1.1 NW 9 13 5 7 1007.5 1007.4 13.6
25/04:00am 26.3 31.1 24.5 90 1.2 WNW 7 9 4 5 1007.4 1007.3 13.6
25/03:30am 26.3 30.4 24.5 90 1.2 WNW 11 15 6 8 1007.2 1007.1 13.6
25/03:00am 26.0 29.5 24.2 90 1.2 NW 13 15 7 8 1006.8 1006.7 13.6
25/02:30am 25.6 30.5 23.6 89 1.4 NNW 4 7 2 4 1006.1 1006.0 13.6
25/02:00am 25.4 28.5 23.5 89 1.3 ESE 13 15 7 8 1006.0 1005.9 13.6
25/01:30am 25.0 28.7 23.2 90 1.2 SE 9 13 5 7 1006.3 1006.2 13.6
25/01:00am 25.2 30.1 23.1 88 1.4 ESE 2 9 1 5 1006.7 1006.6 13.6
25/12:30am 25.9 29.8 24.3 91 1.1 S 11 20 6 11 1007.3 1007.2 13.6
25/12:00am 25.7 29.5 24.1 91 1.1 SW 11 13 6 7 1007.7 1007.6 13.6
 
Date/Time
EST
Temp
°C
App
Temp
°C
Dew
Point
Rel
Hum
%
Delta-T
°C
Wind Press
QNH
hPa
Press
MSL
hPa
Rain
since 9 am
mm
Dir
 
Spd
km/h
Gust
km/h
Spd
kts
Gust
kts
24/11:30pm 25.7 29.1 24.1 91 1.1 WSW 13 24 7 13 1008.5 1008.4 11.2
24/11:00pm 26.7 28.3 23.8 84 2.0 W 22 39 12 21 1008.5 1008.4 0.0
24/10:30pm 29.1 34.3 26.3 85 2.0 WNW 11 17 6 9 1008.4 1008.3 0.0
24/10:00pm 29.5 34.2 26.7 85 2.0 NNW 15 19 8 10 1008.3 1008.2 0.0
24/09:30pm 29.4 33.9 26.4 84 2.1 NNW 15 17 8 9 1007.7 1007.6 0.0
24/09:00pm 29.4 33.8 26.2 83 2.3 N 15 19 8 10 1007.3 1007.2 0.0
24/08:30pm 29.6 34.0 26.2 82 2.4 NNW 15 19 8 10 1007.4 1007.3 0.0
24/08:00pm 29.8 34.2 26.2 81 2.6 NNW 15 19 8 10 1007.2 1007.1 0.0
24/07:30pm 29.5 34.6 26.1 82 2.4 N 11 13 6 7 1006.6 1006.5 0.0
24/07:00pm 29.8 34.8 26.0 80 2.7 N 11 15 6 8 1006.6 1006.5 0.0
24/06:30pm 30.1 35.1 26.0 78 2.9 N 11 15 6 8 1006.4 1006.3 0.0
24/06:00pm 30.5 35.0 25.8 76 3.3 N 13 17 7 9 1005.7 1005.6 0.0
24/05:30pm 30.7 35.2 25.8 75 3.5 N 13 20 7 11 1005.4 1005.3 0.0
24/05:00pm 30.5 34.5 25.6 75 3.5 N 15 22 8 12 1005.3 1005.2 0.0
24/04:30pm 30.8 34.9 25.2 72 4.0 NNW 13 15 7 8 1005.4 1005.3 0.0

Other Formats:

Comma delimited format used in spreadsheet applications
http://www.bom.gov.au/fwo/IDQ60801/IDQ60801.94188.axf

JavaScript Object Notation format (JSON) in row-major order
http://www.bom.gov.au/fwo/IDQ60801/IDQ60801.94188.json